Terminal Aerodrome Forecast
Issued by NWS Key West, FL

Home | Current Version | Previous Version | Text Only | Print | Product List | Glossary On
Versions: 1 2 3 4 5 6 7 8 9 10 11 12 13 14 15 16 17 18 19 20 21 22 23 24 25 26 27 28 29 30 31 32 33 34 35 36
000
FTUS42 KKEY 190817 AAB
TAFEYW
TAF AMD
KEYW 190817Z 1908/2006 12010KT P6SM SCT035
      TEMPO 1908/1910 BKN028 BKN035
     FM192000 09005KT P6SM SCT025
     FM200000 03006KT P6SM FEW025=

USA.gov is the U.S. government's official web portal to all federal, state and local government web resources and services.